Flight Track Log - Related Links

Times and Time Zones

All times are in EDT time to prevent confusion due to time zone crossing. See the ASQ6115 flight status page for this flight to view local times or setup timezone preferences in your user account.

Time Position Orientation Groundspeed Altitude Reporting Facility
EDT Latitude Longitude Course Direction KTS MPH feet Rate Location/Type
Sun 08:19:23 AM 29.9683 -95.3475 190° South 203 234 600  Level Houston Center
Sun 08:19:53 AM 29.9475 -95.3261 138° Southeast 186 214 2,000 2,969 Climbing Houston Center
Sun 08:21:00 AM 29.8953 -95.2600 132° Southeast 256 295 5,400 2,906 Climbing Houston Center
Sun 08:22:01 AM 29.8456 -95.1986 133° Southeast 268 308 8,200 2,418 Climbing Houston Center
Sun 08:23:14 AM 29.7856 -95.1342 137° Southeast 280 322 10,800 1,522 Climbing Houston Center
Sun 08:24:00 AM 29.4878 -95.4324 190° South  Level FlightAware Approximate
Sun 08:24:15 AM 29.7006 -95.1558 192° South 316 364 11,600  Level Houston Center
Sun 08:25:16 AM 29.6114 -95.1989 203° Southwest 339 390 13,300 1,721 Climbing Houston Center
Sun 08:26:17 AM 29.5072 -95.2525 204° Southwest 364 419 15,100 1,623 Climbing Houston Center
Sun 08:27:18 AM 29.4283 -95.3250 219° Southwest 366 421 16,600 1,525 Climbing Houston Center
Sun 08:28:19 AM 29.3489 -95.3992 219° Southwest 366 421 18,200 1,721 Climbing Houston Center
Sun 08:29:20 AM 29.2694 -95.4728 219° Southwest 366 421 20,100 1,721 Climbing Houston Center
Sun 08:30:21 AM 29.1900 -95.5461 219° Southwest 367 422 21,700 1,574 Climbing Houston Center
Sun 08:31:22 AM 29.1086 -95.6217 219° Southwest 375 432 23,300 1,707 Climbing Houston Center
Sun 08:32:24 AM 29.0111 -95.7117 219° Southwest 376 433 25,200 1,707 Climbing Houston Center
Sun 08:33:25 AM 28.9286 -95.7875 219° Southwest 380 437 26,800 1,574 Climbing Houston Center
Sun 08:34:26 AM 28.8458 -95.8647 219° Southwest 384 442 28,400 1,426 Climbing Houston Center
Sun 08:35:27 AM 28.7619 -95.9408 219° Southwest 384 442 29,700 787 Climbing Houston Center
Sun 08:36:28 AM 28.6819 -96.0144 219° Southwest 400 460 30,000 148 Climbing Houston Center
Sun 08:37:29 AM 28.5867 -96.1000 218° Southwest 428 493 30,000  Level Houston Center
Sun 08:38:30 AM 28.4878 -96.1914 219° Southwest 449 517 30,000  Level Houston Center
Sun 08:39:31 AM 28.3664 -96.3014 219° Southwest 460 529 30,000  Level Houston Center
Sun 08:40:32 AM 28.2658 -96.3931 219° Southwest 463 533 30,000  Level Houston Center
Sun 08:41:33 AM 28.1656 -96.4814 218° Southwest 458 527 30,000  Level Houston Center
Sun 08:42:35 AM 28.0661 -96.5728 219° Southwest 458 527 30,000  Level Houston Center
Sun 08:43:36 AM 27.9661 -96.6628 218° Southwest 457 526 30,000  Level Houston Center
Sun 08:44:37 AM 27.8653 -96.7531 218° Southwest 459 528 30,000  Level Houston Center
Sun 08:45:38 AM 27.7647 -96.8444 219° Southwest 463 533 30,000 -98 Level Houston Center
Sun 08:46:39 AM 27.6639 -96.9331 218° Southwest 460 529 29,800 -1,033 Descending Houston Center
Sun 08:47:40 AM 27.5625 -97.0236 218° Southwest 462 532 27,900 -1,918 Descending Houston Center
Sun 08:48:41 AM 27.4617 -97.1133 218° Southwest 462 532 25,900 -1,902 Descending Houston Center
Sun 08:49:43 AM 27.3608 -97.2025 218° Southwest 467 537 24,000 -2,146 Descending Houston Center
Sun 08:50:44 AM 27.2422 -97.3075 218° Southwest 457 526 21,500 -2,213 Descending Houston Center
Sun 08:51:45 AM 27.1483 -97.3908 218° Southwest 440 506 19,500 -1,974 Descending Houston Center
Sun 08:52:00 AM 27.1261 -97.4119 220° Southwest 424 488 19,000 -2,000 Descending Houston Center
Sun 08:52:18 AM 27.0956 -97.4397 219° Southwest 423 487 18,400 -1,957 Descending Houston Center
Sun 08:52:46 AM 27.0528 -97.4736 215° Southwest 441 507 17,500 -2,066 Descending Houston Center
Sun 08:53:19 AM 27.0053 -97.5203 221° Southwest 394 453 16,300 -1,475 Descending Houston Center
Sun 08:53:47 AM 26.9678 -97.5500 215° Southwest 397 457 16,000 -300 Descending Houston Center
Sun 08:54:19 AM 26.9206 -97.5928 219° Southwest 396 456 16,000  Level Houston Center
Sun 08:54:48 AM 26.8861 -97.6297 224° Southwest 391 450 16,000  Level Houston Center
Sun 08:55:20 AM 26.8467 -97.6872 232° Southwest 383 441 16,000 -387 Level Houston Center
Sun 08:55:50 AM 26.8169 -97.7253 229° Southwest 333 383 15,600 -1,377 Descending Houston Center
Sun 08:56:21 AM 26.7917 -97.7625 233° Southwest 322 371 14,600 -1,869 Descending Houston Center
Sun 08:56:51 AM 26.7639 -97.7967 228° Southwest 300 345 13,700 -2,000 Descending Houston Center
Sun 08:57:21 AM 26.7347 -97.8381 232° Southwest 290 334 12,600 -1,967 Descending Houston Center
Sun 08:57:52 AM 26.7111 -97.8683 229° Southwest 297 342 11,700 -1,967 Descending Houston Center
Sun 08:58:22 AM 26.6828 -97.9058 230° Southwest 287 330 10,600 -2,066 Descending Houston Center
Sun 08:58:53 AM 26.6603 -97.9344 229° Southwest 286 329 9,600 -2,100 Descending Houston Center
Sun 08:59:22 AM 26.6331 -97.9711 230° Southwest 278 320 8,500 -2,164 Descending Houston Center
Sun 08:59:54 AM 26.6089 -98.0031 230° Southwest 273 314 7,400 -1,967 Descending Houston Center
Sun 09:00:23 AM 26.5869 -98.0331 231° Southwest 268 308 6,500 -1,377 Descending Houston Center
Sun 09:00:55 AM 26.5619 -98.0658 230° Southwest 266 306 6,000 -492 Descending Houston Center
Sun 09:01:24 AM 26.5389 -98.0956 229° Southwest 263 303 6,000  Level Houston Center
Sun 09:01:56 AM 26.5156 -98.1272 231° Southwest 260 299 6,000 -200 Level Houston Center
Sun 09:02:24 AM 26.4947 -98.1550 230° Southwest 257 296 5,800 -774 Descending Houston Center
Sun 09:02:58 AM 26.4681 -98.1889 229° Southwest 247 284 5,200 -984 Descending Houston Center
Sun 09:03:25 AM 26.4519 -98.2097 229° Southwest 237 273 4,800 -984 Descending Houston Center
Sun 09:03:59 AM 26.4319 -98.2381 232° Southwest 214 246 4,200 -1,100 Descending Houston Center
Sun 09:04:25 AM 26.4150 -98.2589 228° Southwest 195 224 3,700 -984 Descending Houston Center
Sun 09:05:00 AM 26.3958 -98.2844 230° Southwest 201 231 3,200 -984 Descending Houston Center
Sun 09:05:26 AM 26.3800 -98.3056 230° Southwest 193 222 2,700 -1,082 Descending Houston Center
Sun 09:06:01 AM 26.3619 -98.3297 230° Southwest 193 222 2,100 -689 Descending Houston Center
Sun 09:06:27 AM 26.3450 -98.3519 230° Southwest 193 222 2,000 -98 Descending Houston Center
Sun 09:07:02 AM 26.3186 -98.3517 179° South 188 216 2,000  Level Houston Center
Sun 09:07:27 AM 26.3000 -98.3436 159° South 172 198 2,000  Level Houston Center
Sun 09:08:03 AM 26.2761 -98.3331 158° South 169 194 2,000  Level Houston Center
Sun 09:08:28 AM 26.2664 -98.3247 142° Southeast 124 143 2,000 -97 Level Houston Center
Sun 09:09:05 AM 26.2550 -98.3133 138° Southeast 111 128 1,900 -295 Descending Houston Center
Sun 09:09:29 AM 26.2456 -98.3064 147° Southeast 91 105 1,700 -500 Descending Houston Center

Login

Don't have an account? Register now (free) for customized features, flight alerts, and more!